createdAt,value
2017-07-03T00:00:37.859Z,1015.58
2017-07-03T00:01:18.753Z,1015.62
2017-07-03T00:01:59.643Z,1015.56
2017-07-03T00:02:40.534Z,1015.58
2017-07-03T00:03:21.425Z,1015.62
2017-07-03T00:04:02.316Z,1015.61
2017-07-03T00:04:43.204Z,1015.64
2017-07-03T00:05:24.096Z,1015.65
2017-07-03T00:06:04.981Z,1015.64
2017-07-03T00:06:45.864Z,1015.66
2017-07-03T00:07:26.737Z,1015.63
2017-07-03T00:08:07.641Z,1015.64
2017-07-03T00:08:48.514Z,1015.68
2017-07-03T00:09:29.400Z,1015.66
2017-07-03T00:10:10.284Z,1015.66
2017-07-03T00:10:51.171Z,1015.66
2017-07-03T00:11:32.045Z,1015.68
2017-07-03T00:12:12.926Z,1015.68
2017-07-03T00:12:53.814Z,1015.63
2017-07-03T00:13:34.706Z,1015.67
2017-07-03T00:14:15.591Z,1015.66
2017-07-03T00:14:56.493Z,1015.69
2017-07-03T00:15:37.381Z,1015.71
2017-07-03T00:16:18.260Z,1015.64
2017-07-03T00:16:59.160Z,1015.65
2017-07-03T00:17:40.047Z,1015.68
2017-07-03T00:18:20.933Z,1015.67
2017-07-03T00:19:01.819Z,1015.65
2017-07-03T00:19:42.721Z,1015.69
2017-07-03T00:20:23.600Z,1015.7
2017-07-03T00:21:04.484Z,1015.64
2017-07-03T00:21:45.368Z,1015.65
2017-07-03T00:22:26.254Z,1015.67
2017-07-03T00:23:07.137Z,1015.64
2017-07-03T00:23:48.021Z,1015.69
2017-07-03T00:24:28.910Z,1015.66
2017-07-03T00:25:09.800Z,1015.67
2017-07-03T00:25:50.689Z,1015.67
2017-07-03T00:26:31.578Z,1015.68
2017-07-03T00:27:12.461Z,1015.64
2017-07-03T00:27:53.348Z,1015.71
2017-07-03T00:28:34.237Z,1015.68
2017-07-03T00:29:15.120Z,1015.7
2017-07-03T00:29:56.010Z,1015.66
2017-07-03T00:30:36.898Z,1015.71
2017-07-03T00:31:17.789Z,1015.66
2017-07-03T00:31:58.670Z,1015.74
2017-07-03T00:32:39.550Z,1015.68
2017-07-03T00:33:20.450Z,1015.74
2017-07-03T00:34:01.342Z,1015.69
2017-07-03T00:34:42.228Z,1015.71
2017-07-03T00:35:23.112Z,1015.75
2017-07-03T00:36:04.003Z,1015.73
2017-07-03T00:36:44.898Z,1015.72
2017-07-03T00:37:25.796Z,1015.69
2017-07-03T00:38:06.681Z,1015.73
2017-07-03T00:38:47.564Z,1015.66
2017-07-03T00:39:28.459Z,1015.67
2017-07-03T00:40:09.344Z,1015.71
2017-07-03T00:40:50.232Z,1015.69
2017-07-03T00:41:31.116Z,1015.68
2017-07-03T00:42:12.010Z,1015.73
2017-07-03T00:42:52.915Z,1015.67
2017-07-03T00:43:33.801Z,1015.72
2017-07-03T00:44:14.704Z,1015.7
2017-07-03T00:44:55.581Z,1015.71
2017-07-03T00:45:36.456Z,1015.7
2017-07-03T00:46:17.340Z,1015.73
2017-07-03T00:46:58.221Z,1015.71
2017-07-03T00:47:39.102Z,1015.7
2017-07-03T00:48:19.987Z,1015.73
2017-07-03T00:49:00.880Z,1015.75
2017-07-03T00:49:41.760Z,1015.71
2017-07-03T00:50:22.646Z,1015.73
2017-07-03T00:51:03.531Z,1015.75
2017-07-03T00:51:44.425Z,1015.74
2017-07-03T00:52:25.309Z,1015.79
2017-07-03T00:53:06.201Z,1015.78
2017-07-03T00:53:47.088Z,1015.78
2017-07-03T00:54:27.962Z,1015.77
2017-07-03T00:55:08.920Z,1015.79
2017-07-03T00:55:49.744Z,1015.77
2017-07-03T00:58:03.486Z,1015.81
2017-07-03T00:58:44.378Z,1015.82
2017-07-03T00:59:25.254Z,1015.83
2017-07-03T01:00:06.137Z,1015.84
2017-07-03T01:00:47.019Z,1015.81
2017-07-03T01:01:27.909Z,1015.85
2017-07-03T01:02:08.794Z,1015.84
2017-07-03T01:02:49.719Z,1015.83
2017-07-03T01:03:30.627Z,1015.83
2017-07-03T01:04:11.504Z,1015.86
2017-07-03T01:04:52.398Z,1015.81
2017-07-03T01:05:33.308Z,1015.8
2017-07-03T01:07:06.542Z,1015.85
2017-07-03T01:07:47.421Z,1015.86
2017-07-03T01:08:28.305Z,1015.85
2017-07-03T01:09:09.199Z,1015.86
2017-07-03T01:09:50.090Z,1015.89
2017-07-03T01:10:30.985Z,1015.87
2017-07-03T01:11:11.854Z,1015.89
2017-07-03T01:11:52.736Z,1015.86
2017-07-03T01:12:33.635Z,1015.9
2017-07-03T01:13:14.518Z,1015.88
2017-07-03T01:13:55.390Z,1015.91
2017-07-03T01:14:36.277Z,1015.91
2017-07-03T01:15:17.156Z,1015.92
2017-07-03T01:15:58.051Z,1015.91
2017-07-03T01:16:38.903Z,1015.87
2017-07-03T01:17:19.799Z,1015.91
2017-07-03T01:18:00.689Z,1015.95
2017-07-03T01:18:41.590Z,1015.91
2017-07-03T01:19:22.488Z,1015.89
2017-07-03T01:20:03.371Z,1015.91
2017-07-03T01:20:44.261Z,1015.89
2017-07-03T01:21:25.150Z,1015.89
2017-07-03T01:22:06.039Z,1015.92
2017-07-03T01:22:46.923Z,1015.93
2017-07-03T01:23:27.808Z,1015.9
2017-07-03T01:24:08.698Z,1015.94
2017-07-03T01:24:49.584Z,1015.94
2017-07-03T01:25:30.470Z,1015.92
2017-07-03T01:26:11.358Z,1015.92
2017-07-03T01:26:52.249Z,1015.89
2017-07-03T01:27:33.132Z,1015.89
2017-07-03T01:28:14.021Z,1015.92
2017-07-03T01:28:54.916Z,1015.92
2017-07-03T01:29:35.795Z,1015.9
2017-07-03T01:30:16.685Z,1015.91
2017-07-03T01:30:57.570Z,1015.91
2017-07-03T01:31:38.456Z,1015.93
2017-07-03T01:32:19.339Z,1015.93
2017-07-03T01:33:00.221Z,1015.95
2017-07-03T01:33:41.108Z,1015.92
2017-07-03T01:34:21.989Z,1015.92
2017-07-03T01:35:02.880Z,1015.95
2017-07-03T01:35:43.760Z,1015.95
2017-07-03T01:36:24.669Z,1015.96
2017-07-03T01:37:05.551Z,1015.97
2017-07-03T01:37:46.441Z,1015.93
2017-07-03T01:38:27.343Z,1015.97
2017-07-03T01:39:08.229Z,1015.97
2017-07-03T01:39:49.119Z,1015.98
2017-07-03T01:40:30.022Z,1015.94
2017-07-03T01:41:10.904Z,1015.92
2017-07-03T01:41:51.775Z,1015.92
2017-07-03T01:42:32.669Z,1015.9
2017-07-03T01:43:13.552Z,1015.93
2017-07-03T01:43:54.438Z,1015.95
2017-07-03T01:44:35.326Z,1015.93
2017-07-03T01:45:16.222Z,1015.94
2017-07-03T01:45:57.111Z,1015.93
2017-07-03T01:46:37.994Z,1015.92
2017-07-03T01:47:18.879Z,1015.93
2017-07-03T01:47:59.752Z,1015.93
2017-07-03T01:48:40.647Z,1015.94
2017-07-03T01:49:21.518Z,1015.97
2017-07-03T01:50:02.401Z,1015.98
2017-07-03T01:50:43.289Z,1015.93
2017-07-03T01:51:24.176Z,1016
2017-07-03T01:52:05.056Z,1015.99
2017-07-03T01:52:45.942Z,1016.03
2017-07-03T01:53:26.827Z,1016.01
2017-07-03T01:54:07.713Z,1015.99
2017-07-03T01:54:48.601Z,1016.04
2017-07-03T01:55:29.497Z,1016.01
2017-07-03T01:56:10.380Z,1015.99
2017-07-03T01:56:51.262Z,1015.99
2017-07-03T01:57:32.150Z,1015.99
2017-07-03T01:58:13.027Z,1016.04
2017-07-03T01:58:53.919Z,1016.01
2017-07-03T01:59:34.801Z,1016
2017-07-03T02:00:15.697Z,1016.01
2017-07-03T02:00:56.580Z,1016.02
2017-07-03T02:01:37.465Z,1016.02
2017-07-03T02:02:18.350Z,1016.04
2017-07-03T02:02:59.243Z,1016.06
2017-07-03T02:03:40.138Z,1016.05
2017-07-03T02:04:21.059Z,1016.06
2017-07-03T02:05:01.951Z,1016.05
2017-07-03T02:05:42.839Z,1016.05
2017-07-03T02:06:23.719Z,1016.05
2017-07-03T02:07:04.602Z,1016.04
2017-07-03T02:07:45.480Z,1016.07
2017-07-03T02:08:26.361Z,1016.08
2017-07-03T02:09:07.302Z,1016.05
2017-07-03T02:09:48.195Z,1016.09
2017-07-03T02:10:29.084Z,1016.08
2017-07-03T02:11:09.984Z,1016.07
2017-07-03T02:11:50.871Z,1016.11
2017-07-03T02:12:31.751Z,1016.07
2017-07-03T02:13:12.636Z,1016.12
2017-07-03T02:13:53.519Z,1016.08
2017-07-03T02:14:34.414Z,1016.09
2017-07-03T02:15:15.309Z,1016.13
2017-07-03T02:15:56.196Z,1016.13
2017-07-03T02:16:37.083Z,1016.11
2017-07-03T02:17:17.969Z,1016.14
2017-07-03T02:17:58.858Z,1016.14
2017-07-03T02:18:39.746Z,1016.13
2017-07-03T02:19:20.644Z,1016.16
2017-07-03T02:20:01.533Z,1016.17
2017-07-03T02:20:42.412Z,1016.13
2017-07-03T02:21:23.300Z,1016.15
2017-07-03T02:22:04.192Z,1016.13
2017-07-03T02:22:45.069Z,1016.15
2017-07-03T02:23:25.951Z,1016.13
2017-07-03T02:24:06.839Z,1016.17
2017-07-03T02:24:47.729Z,1016.14
2017-07-03T02:25:28.609Z,1016.17
2017-07-03T02:26:09.501Z,1016.17
2017-07-03T02:26:50.389Z,1016.2
2017-07-03T02:27:31.275Z,1016.15
2017-07-03T02:28:12.157Z,1016.17
2017-07-03T02:28:53.061Z,1016.2
2017-07-03T02:29:33.951Z,1016.21
2017-07-03T02:30:14.838Z,1016.2
2017-07-03T02:30:55.732Z,1016.21
2017-07-03T02:31:36.618Z,1016.23
2017-07-03T02:32:17.505Z,1016.25
2017-07-03T02:32:58.394Z,1016.24
2017-07-03T02:33:39.265Z,1016.22
2017-07-03T02:34:20.149Z,1016.23
2017-07-03T02:35:01.057Z,1016.26
2017-07-03T02:35:41.950Z,1016.28
2017-07-03T02:36:22.837Z,1016.27
2017-07-03T02:37:03.715Z,1016.29
2017-07-03T02:38:43.116Z,1016.33
2017-07-03T02:39:24.006Z,1016.38
2017-07-03T02:40:04.891Z,1016.33
2017-07-03T02:40:45.769Z,1016.36
2017-07-03T02:41:26.656Z,1016.33
2017-07-03T02:42:07.545Z,1016.43
2017-07-03T02:42:48.450Z,1016.39
2017-07-03T02:43:29.317Z,1016.43
2017-07-03T02:44:10.193Z,1016.43
2017-07-03T02:44:51.090Z,1016.44
2017-07-03T02:45:31.981Z,1016.42
2017-07-03T02:46:12.863Z,1016.47
2017-07-03T02:46:53.746Z,1016.49
2017-07-03T02:47:34.637Z,1016.47
2017-07-03T02:48:15.527Z,1016.43
2017-07-03T02:48:56.428Z,1016.45
2017-07-03T02:49:37.315Z,1016.44
2017-07-03T02:50:18.208Z,1016.46
2017-07-03T02:50:59.083Z,1016.44
2017-07-03T02:51:39.967Z,1016.44
2017-07-03T02:52:20.857Z,1016.45
2017-07-03T02:53:01.742Z,1016.49
2017-07-03T02:53:42.623Z,1016.45
2017-07-03T02:54:23.505Z,1016.44
2017-07-03T02:55:04.429Z,1016.5
2017-07-03T02:55:45.302Z,1016.47
2017-07-03T02:56:26.180Z,1016.48
2017-07-03T02:57:07.085Z,1016.44
2017-07-03T02:57:47.970Z,1016.53
2017-07-03T02:58:28.854Z,1016.42
2017-07-03T02:59:09.742Z,1016.47
2017-07-03T02:59:50.638Z,1016.45
2017-07-03T03:00:31.512Z,1016.52
2017-07-03T03:01:12.406Z,1016.5
2017-07-03T03:01:53.314Z,1016.48
2017-07-03T03:02:34.192Z,1016.47
2017-07-03T03:03:15.082Z,1016.53
2017-07-03T03:03:55.971Z,1016.48
2017-07-03T03:04:36.863Z,1016.5
2017-07-03T03:05:17.759Z,1016.48
2017-07-03T03:05:58.653Z,1016.48
2017-07-03T03:06:39.535Z,1016.52
2017-07-03T03:07:20.430Z,1016.54
2017-07-03T03:08:01.311Z,1016.54
2017-07-03T03:08:42.196Z,1016.5
2017-07-03T03:09:23.086Z,1016.52
2017-07-03T03:10:03.987Z,1016.55
2017-07-03T03:10:44.870Z,1016.52
2017-07-03T03:11:25.749Z,1016.51
2017-07-03T03:12:06.633Z,1016.56
2017-07-03T03:12:47.518Z,1016.5
2017-07-03T03:13:28.403Z,1016.5
2017-07-03T03:14:09.287Z,1016.48
2017-07-03T03:14:50.176Z,1016.52
2017-07-03T03:15:31.070Z,1016.55
2017-07-03T03:16:11.953Z,1016.52
2017-07-03T03:16:52.845Z,1016.54
2017-07-03T03:17:33.743Z,1016.53
2017-07-03T03:18:14.623Z,1016.55
2017-07-03T03:18:55.509Z,1016.52
2017-07-03T03:19:36.399Z,1016.57
2017-07-03T03:20:17.293Z,1016.53
2017-07-03T03:20:58.169Z,1016.54
2017-07-03T03:21:39.063Z,1016.54
2017-07-03T03:22:19.954Z,1016.53
2017-07-03T03:23:00.832Z,1016.58
2017-07-03T03:23:41.726Z,1016.59
2017-07-03T03:24:22.612Z,1016.62
2017-07-03T03:25:03.506Z,1016.57
2017-07-03T03:25:44.371Z,1016.59
2017-07-03T03:26:25.258Z,1016.61
2017-07-03T03:27:06.151Z,1016.56
2017-07-03T03:27:47.032Z,1016.65
2017-07-03T03:28:27.913Z,1016.59
2017-07-03T03:29:08.802Z,1016.59
2017-07-03T03:29:49.690Z,1016.61
2017-07-03T03:30:30.573Z,1016.61
2017-07-03T03:31:11.458Z,1016.59
2017-07-03T03:31:52.352Z,1016.6
2017-07-03T03:32:33.231Z,1016.64
2017-07-03T03:33:14.114Z,1016.67
2017-07-03T03:33:54.998Z,1016.65
2017-07-03T03:34:35.890Z,1016.61
2017-07-03T03:35:16.771Z,1016.62
2017-07-03T03:35:57.650Z,1016.67
2017-07-03T03:36:38.538Z,1016.64
2017-07-03T03:37:19.431Z,1016.67
2017-07-03T03:38:00.316Z,1016.68
2017-07-03T03:38:41.187Z,1016.68
2017-07-03T03:39:22.081Z,1016.69
2017-07-03T03:40:02.968Z,1016.7
2017-07-03T03:40:43.852Z,1016.74
2017-07-03T03:41:24.755Z,1016.72
2017-07-03T03:42:05.641Z,1016.68
2017-07-03T03:42:46.524Z,1016.7
2017-07-03T03:43:27.401Z,1016.71
2017-07-03T03:44:08.290Z,1016.77
2017-07-03T03:44:49.178Z,1016.73
2017-07-03T03:45:30.069Z,1016.73
2017-07-03T03:46:10.974Z,1016.74
2017-07-03T03:46:51.863Z,1016.72
2017-07-03T03:47:32.749Z,1016.77
2017-07-03T03:48:13.623Z,1016.71
2017-07-03T03:48:54.512Z,1016.76
2017-07-03T03:49:35.406Z,1016.72
2017-07-03T03:50:16.285Z,1016.7
2017-07-03T03:50:57.165Z,1016.72
2017-07-03T03:51:38.057Z,1016.71
2017-07-03T03:52:18.933Z,1016.73
2017-07-03T03:52:59.818Z,1016.73
2017-07-03T03:53:40.705Z,1016.73
2017-07-03T03:54:21.609Z,1016.73
2017-07-03T03:55:02.492Z,1016.75
2017-07-03T03:55:43.369Z,1016.73
2017-07-03T03:56:24.279Z,1016.74
2017-07-03T03:57:05.155Z,1016.7
2017-07-03T03:57:46.037Z,1016.68
2017-07-03T03:58:26.931Z,1016.69
2017-07-03T03:59:07.808Z,1016.72
2017-07-03T03:59:48.698Z,1016.74
2017-07-03T04:00:29.589Z,1016.72
2017-07-03T04:01:10.479Z,1016.7
2017-07-03T04:01:51.363Z,1016.72
2017-07-03T04:02:32.248Z,1016.68
2017-07-03T04:03:13.138Z,1016.69
2017-07-03T04:03:54.037Z,1016.73
2017-07-03T04:04:34.970Z,1016.77
2017-07-03T04:05:15.857Z,1016.74
2017-07-03T04:05:56.735Z,1016.74
2017-07-03T04:06:37.633Z,1016.78
2017-07-03T04:07:18.538Z,1016.79
2017-07-03T04:07:59.393Z,1016.84
2017-07-03T04:08:40.271Z,1016.8
2017-07-03T04:09:21.170Z,1016.82
2017-07-03T04:10:02.062Z,1016.83
2017-07-03T04:10:42.933Z,1016.88
2017-07-03T04:11:23.825Z,1016.86
2017-07-03T04:12:04.717Z,1016.87
2017-07-03T04:12:45.598Z,1016.86
2017-07-03T04:13:26.494Z,1016.91
2017-07-03T04:14:07.385Z,1016.87
2017-07-03T04:14:48.274Z,1016.86
2017-07-03T04:15:29.158Z,1016.86
2017-07-03T04:16:10.052Z,1016.83
2017-07-03T04:16:50.945Z,1016.85
2017-07-03T04:17:31.828Z,1016.88
2017-07-03T04:18:12.731Z,1016.92
2017-07-03T04:18:53.623Z,1016.9
2017-07-03T04:19:34.501Z,1016.94
2017-07-03T04:20:15.394Z,1016.93
2017-07-03T04:20:56.266Z,1016.91
2017-07-03T04:21:37.157Z,1016.93
2017-07-03T04:22:18.027Z,1016.9
2017-07-03T04:22:58.913Z,1016.91
2017-07-03T04:23:39.802Z,1016.92
2017-07-03T04:24:20.687Z,1016.94
2017-07-03T04:25:01.561Z,1016.98
2017-07-03T04:25:42.433Z,1016.98
2017-07-03T04:26:23.328Z,1016.94
2017-07-03T04:27:04.211Z,1016.97
2017-07-03T04:27:45.095Z,1016.95
2017-07-03T04:28:25.981Z,1016.87
2017-07-03T04:29:06.918Z,1016.91
2017-07-03T04:29:47.779Z,1016.9
2017-07-03T04:30:28.672Z,1016.94
2017-07-03T04:31:09.575Z,1016.92
2017-07-03T04:31:50.457Z,1016.92
2017-07-03T04:32:31.349Z,1016.96
2017-07-03T04:33:12.235Z,1016.94
2017-07-03T04:33:53.119Z,1016.94
2017-07-03T04:34:33.997Z,1016.95
2017-07-03T04:35:14.881Z,1016.97
2017-07-03T04:35:55.773Z,1016.92
2017-07-03T04:36:36.652Z,1017
2017-07-03T04:37:17.547Z,1016.93
2017-07-03T04:37:58.448Z,1016.95
2017-07-03T04:38:39.353Z,1016.99
2017-07-03T04:39:20.241Z,1016.93
2017-07-03T04:40:01.131Z,1016.99
2017-07-03T04:40:42.035Z,1016.95
2017-07-03T04:41:22.916Z,1016.98
2017-07-03T04:42:03.800Z,1016.96
2017-07-03T04:42:44.680Z,1017.02
2017-07-03T04:43:25.568Z,1017.01
2017-07-03T04:44:06.454Z,1017
2017-07-03T04:44:47.358Z,1016.93
2017-07-03T04:45:28.276Z,1016.88
2017-07-03T04:46:09.157Z,1016.92
2017-07-03T04:46:50.027Z,1016.95
2017-07-03T04:47:30.906Z,1016.93
2017-07-03T04:48:11.797Z,1016.88
2017-07-03T04:48:52.686Z,1016.91
2017-07-03T04:49:33.567Z,1016.92
2017-07-03T04:50:14.451Z,1016.87
2017-07-03T04:50:55.331Z,1016.88
2017-07-03T04:51:36.218Z,1016.89
2017-07-03T04:52:17.101Z,1016.87
2017-07-03T04:52:57.994Z,1016.87
2017-07-03T04:53:38.884Z,1016.87
2017-07-03T04:54:19.778Z,1016.87
2017-07-03T04:55:00.656Z,1016.87
2017-07-03T04:55:41.549Z,1016.9
2017-07-03T04:56:22.464Z,1016.94
2017-07-03T04:57:03.360Z,1016.92
2017-07-03T04:57:44.246Z,1016.88
2017-07-03T04:58:25.128Z,1016.89
2017-07-03T04:59:06.041Z,1016.91
2017-07-03T04:59:46.930Z,1016.88
2017-07-03T05:00:27.816Z,1016.88
2017-07-03T05:01:08.703Z,1016.88
2017-07-03T05:01:49.593Z,1016.92
2017-07-03T05:02:30.475Z,1016.87
2017-07-03T05:03:11.367Z,1016.9
2017-07-03T05:03:52.257Z,1016.89
2017-07-03T05:04:33.142Z,1016.88
2017-07-03T05:05:14.035Z,1016.88
2017-07-03T05:05:54.928Z,1016.9
2017-07-03T05:06:35.810Z,1016.91
2017-07-03T05:07:16.693Z,1016.91
2017-07-03T05:07:58.329Z,1016.92
2017-07-03T05:08:39.212Z,1016.88
2017-07-03T05:09:20.102Z,1016.86
2017-07-03T05:10:01.000Z,1016.88
2017-07-03T05:10:41.882Z,1016.91
2017-07-03T05:11:22.758Z,1016.88
2017-07-03T05:12:03.639Z,1016.9
2017-07-03T05:12:44.558Z,1016.9
2017-07-03T05:13:25.448Z,1016.92
2017-07-03T05:14:06.344Z,1016.92
2017-07-03T05:14:47.227Z,1016.88
2017-07-03T05:15:28.157Z,1016.88
2017-07-03T05:16:09.010Z,1016.95
2017-07-03T05:16:49.899Z,1016.96
2017-07-03T05:17:30.787Z,1017.01
2017-07-03T05:18:11.677Z,1016.96
2017-07-03T05:18:52.578Z,1016.96
2017-07-03T05:19:33.461Z,1016.96
2017-07-03T05:20:14.352Z,1016.99
2017-07-03T05:20:55.225Z,1017.02
2017-07-03T05:21:36.107Z,1017.02
2017-07-03T05:22:16.990Z,1017
2017-07-03T05:22:57.874Z,1017.03
2017-07-03T05:23:38.771Z,1017.04
2017-07-03T05:24:19.666Z,1017.04
2017-07-03T05:25:00.541Z,1017.07
2017-07-03T05:25:41.427Z,1017.04
2017-07-03T05:26:22.320Z,1017.08
2017-07-03T05:27:03.209Z,1017.1
2017-07-03T05:27:44.095Z,1017.1
2017-07-03T05:28:24.982Z,1017.07
2017-07-03T05:29:05.899Z,1017.09
2017-07-03T05:29:46.778Z,1017.07
2017-07-03T05:30:27.668Z,1017.08
2017-07-03T05:31:08.551Z,1017.07
2017-07-03T05:31:49.432Z,1017.11
2017-07-03T05:32:30.311Z,1017.16
2017-07-03T05:33:11.202Z,1017.14
2017-07-03T05:33:52.100Z,1017.12
2017-07-03T05:34:32.972Z,1017.11
2017-07-03T05:35:13.863Z,1017.15
2017-07-03T05:35:54.749Z,1017.15
2017-07-03T05:36:35.642Z,1017.16
2017-07-03T05:37:16.530Z,1017.15
2017-07-03T05:37:57.426Z,1017.18
2017-07-03T05:38:38.320Z,1017.18
2017-07-03T05:39:19.213Z,1017.14
2017-07-03T05:40:00.117Z,1017.17
2017-07-03T05:40:40.999Z,1017.14
2017-07-03T05:41:21.885Z,1017.19
2017-07-03T05:42:02.777Z,1017.13
2017-07-03T05:42:43.675Z,1017.1
2017-07-03T05:43:24.569Z,1017.17
2017-07-03T05:44:05.458Z,1017.14
2017-07-03T05:44:46.352Z,1017.13
2017-07-03T05:45:27.292Z,1017.2
2017-07-03T05:46:08.150Z,1017.19
2017-07-03T05:46:49.045Z,1017.22
2017-07-03T05:47:29.930Z,1017.22
2017-07-03T05:48:10.815Z,1017.22
2017-07-03T05:48:51.703Z,1017.2
2017-07-03T05:49:32.597Z,1017.18
2017-07-03T05:50:13.489Z,1017.21
2017-07-03T05:50:54.385Z,1017.21
2017-07-03T05:51:35.270Z,1017.21
2017-07-03T05:52:16.164Z,1017.23
2017-07-03T05:52:57.061Z,1017.24
2017-07-03T05:53:37.948Z,1017.23
2017-07-03T05:54:18.838Z,1017.19
2017-07-03T05:54:59.724Z,1017.19
2017-07-03T05:55:40.615Z,1017.2
2017-07-03T05:56:21.492Z,1017.18
2017-07-03T05:57:02.382Z,1017.25
2017-07-03T05:57:43.278Z,1017.23
2017-07-03T05:58:24.166Z,1017.24
2017-07-03T05:59:05.068Z,1017.23
2017-07-03T05:59:45.954Z,1017.25
2017-07-03T06:00:26.843Z,1017.25
2017-07-03T06:01:07.733Z,1017.29
2017-07-03T06:01:48.631Z,1017.25
2017-07-03T06:02:29.525Z,1017.28
2017-07-03T06:03:10.398Z,1017.28
2017-07-03T06:03:51.320Z,1017.27
2017-07-03T06:04:32.212Z,1017.31
2017-07-03T06:05:13.109Z,1017.34
2017-07-03T06:05:54.000Z,1017.33
2017-07-03T06:06:34.882Z,1017.34
2017-07-03T06:07:15.775Z,1017.33
2017-07-03T06:07:56.669Z,1017.3
2017-07-03T06:08:37.558Z,1017.34
2017-07-03T06:09:18.439Z,1017.31
2017-07-03T06:09:59.327Z,1017.34
2017-07-03T06:10:40.227Z,1017.34
2017-07-03T06:11:21.125Z,1017.35
2017-07-03T06:12:02.006Z,1017.32
2017-07-03T06:12:42.897Z,1017.28
2017-07-03T06:13:23.786Z,1017.23
2017-07-03T06:14:04.679Z,1017.27
2017-07-03T06:14:45.572Z,1017.31
2017-07-03T06:15:26.512Z,1017.25
2017-07-03T06:16:07.359Z,1017.29
2017-07-03T06:16:48.251Z,1017.27
2017-07-03T06:17:29.138Z,1017.22
2017-07-03T06:18:10.033Z,1017.23
2017-07-03T06:18:50.925Z,1017.26
2017-07-03T06:19:31.828Z,1017.3
2017-07-03T06:20:12.710Z,1017.26
2017-07-03T06:20:53.598Z,1017.27
2017-07-03T06:21:34.497Z,1017.29
2017-07-03T06:22:15.394Z,1017.25
2017-07-03T06:22:56.292Z,1017.16
2017-07-03T06:23:37.190Z,1017.24
2017-07-03T06:24:18.078Z,1017.22
2017-07-03T06:24:58.974Z,1017.2
2017-07-03T06:25:39.856Z,1017.21
2017-07-03T06:26:20.737Z,1017.29
2017-07-03T06:27:01.627Z,1017.24
2017-07-03T06:27:42.515Z,1017.25
2017-07-03T06:28:23.422Z,1017.3
2017-07-03T06:29:04.312Z,1017.27
2017-07-03T06:29:45.207Z,1017.25
2017-07-03T06:30:26.149Z,1017.29
2017-07-03T06:31:07.057Z,1017.28
2017-07-03T06:31:47.942Z,1017.28
2017-07-03T06:32:28.836Z,1017.3
2017-07-03T06:33:09.742Z,1017.28
2017-07-03T06:33:50.641Z,1017.32
2017-07-03T06:34:31.556Z,1017.31
2017-07-03T06:35:12.452Z,1017.25
2017-07-03T06:35:53.352Z,1017.27
2017-07-03T06:36:34.265Z,1017.29
2017-07-03T06:37:15.163Z,1017.31
2017-07-03T06:37:56.069Z,1017.32
2017-07-03T06:38:36.971Z,1017.33
2017-07-03T06:39:17.869Z,1017.3
2017-07-03T06:39:58.775Z,1017.27
2017-07-03T06:40:39.688Z,1017.29
2017-07-03T06:41:20.594Z,1017.29
2017-07-03T06:42:01.498Z,1017.27
2017-07-03T06:42:42.390Z,1017.29
2017-07-03T06:43:23.290Z,1017.28
2017-07-03T06:44:04.201Z,1017.32
2017-07-03T06:44:45.107Z,1017.3
2017-07-03T06:45:26.023Z,1017.22
2017-07-03T06:46:06.929Z,1017.25
2017-07-03T06:46:47.860Z,1017.31
2017-07-03T06:47:28.763Z,1017.27
2017-07-03T06:48:09.649Z,1017.26
2017-07-03T06:48:50.599Z,1017.25
2017-07-03T06:49:31.492Z,1017.31
2017-07-03T06:50:12.392Z,1017.27
2017-07-03T06:50:53.294Z,1017.32
2017-07-03T06:51:34.181Z,1017.25
2017-07-03T06:52:15.076Z,1017.31
2017-07-03T06:52:55.975Z,1017.29
2017-07-03T06:53:36.875Z,1017.3
2017-07-03T06:54:17.790Z,1017.3
2017-07-03T06:54:58.708Z,1017.31
2017-07-03T06:55:39.602Z,1017.31
2017-07-03T06:56:20.580Z,1017.29
2017-07-03T06:57:01.472Z,1017.31
2017-07-03T06:57:42.354Z,1017.32
2017-07-03T06:58:23.233Z,1017.3
2017-07-03T06:59:04.122Z,1017.31
2017-07-03T06:59:45.024Z,1017.28
2017-07-03T07:00:25.936Z,1017.3
2017-07-03T07:01:06.795Z,1017.31
2017-07-03T07:01:47.694Z,1017.29
2017-07-03T07:02:28.578Z,1017.29
2017-07-03T07:03:09.471Z,1017.27
2017-07-03T07:03:50.381Z,1017.32
2017-07-03T07:04:31.264Z,1017.25
2017-07-03T07:05:12.171Z,1017.27
2017-07-03T07:05:53.060Z,1017.29
2017-07-03T07:06:33.941Z,1017.22
2017-07-03T07:07:14.849Z,1017.27
2017-07-03T07:07:55.751Z,1017.32
2017-07-03T07:08:36.632Z,1017.29
2017-07-03T07:09:17.539Z,1017.27
2017-07-03T07:09:58.450Z,1017.25
2017-07-03T07:10:39.357Z,1017.25
2017-07-03T07:11:20.237Z,1017.24
2017-07-03T07:12:01.137Z,1017.24
2017-07-03T07:12:42.037Z,1017.28
2017-07-03T07:13:22.929Z,1017.29
2017-07-03T07:14:03.829Z,1017.29
2017-07-03T07:14:44.721Z,1017.28
2017-07-03T07:15:25.615Z,1017.28
2017-07-03T07:16:06.518Z,1017.27
2017-07-03T07:16:47.420Z,1017.2
2017-07-03T07:17:28.328Z,1017.29
2017-07-03T07:18:09.217Z,1017.28
2017-07-03T07:18:50.113Z,1017.3
2017-07-03T07:19:31.015Z,1017.33
2017-07-03T07:20:11.908Z,1017.28
2017-07-03T07:20:52.805Z,1017.25
2017-07-03T07:21:33.710Z,1017.21
2017-07-03T07:22:14.623Z,1017.19
2017-07-03T07:22:55.524Z,1017.23
2017-07-03T07:23:36.425Z,1017.18
2017-07-03T07:24:17.322Z,1017.17
2017-07-03T07:24:58.220Z,1017.18
2017-07-03T07:25:39.124Z,1017.19
2017-07-03T07:26:20.029Z,1017.21
2017-07-03T07:27:00.924Z,1017.18
2017-07-03T07:27:41.838Z,1017.18
2017-07-03T07:28:22.729Z,1017.2
2017-07-03T07:29:03.625Z,1017.18
2017-07-03T07:29:44.543Z,1017.17
2017-07-03T07:30:25.415Z,1017.14
2017-07-03T07:31:06.288Z,1017.17
2017-07-03T07:31:47.191Z,1017.16
2017-07-03T07:32:28.108Z,1017.21
2017-07-03T07:33:08.993Z,1017.14
2017-07-03T07:33:49.874Z,1017.16
2017-07-03T07:34:30.800Z,1017.16
2017-07-03T07:35:11.680Z,1017.21
2017-07-03T07:35:52.568Z,1017.2
2017-07-03T07:36:33.455Z,1017.14
2017-07-03T07:37:14.341Z,1017.14
2017-07-03T07:37:55.268Z,1017.12
2017-07-03T07:38:36.167Z,1017.15
2017-07-03T07:39:17.062Z,1017.13
2017-07-03T07:39:58.017Z,1017.12
2017-07-03T07:40:38.932Z,1017.13
2017-07-03T07:41:19.806Z,1017.19
2017-07-03T07:42:00.701Z,1017.17
2017-07-03T07:42:41.624Z,1017.17
2017-07-03T07:44:50.669Z,1017.19
2017-07-03T07:45:31.569Z,1017.16
2017-07-03T07:46:12.463Z,1017.14
2017-07-03T07:46:53.439Z,1017.18
2017-07-03T07:47:34.334Z,1017.22
2017-07-03T07:48:15.224Z,1017.14
2017-07-03T07:48:56.145Z,1017.14
2017-07-03T07:49:37.035Z,1017.17
2017-07-03T07:50:17.920Z,1017.2
2017-07-03T07:50:58.814Z,1017.21
2017-07-03T07:51:39.694Z,1017.22
2017-07-03T07:52:20.576Z,1017.19
2017-07-03T07:53:01.483Z,1017.17
2017-07-03T07:53:42.393Z,1017.17
2017-07-03T07:54:23.307Z,1017.15
2017-07-03T07:55:04.209Z,1017.15
2017-07-03T07:55:45.091Z,1017.2
2017-07-03T07:56:25.965Z,1017.15
2017-07-03T07:57:06.837Z,1017.16
2017-07-03T07:57:47.726Z,1017.18
2017-07-03T07:58:28.614Z,1017.23
2017-07-03T07:59:09.484Z,1017.22
2017-07-03T07:59:50.368Z,1017.2
2017-07-03T08:00:31.251Z,1017.16
2017-07-03T08:01:12.207Z,1017.17
2017-07-03T08:02:45.555Z,1017.3
2017-07-03T08:03:26.429Z,1017.26
2017-07-03T08:04:07.393Z,1017.26
2017-07-03T08:06:16.458Z,1017.32
2017-07-03T08:06:57.354Z,1017.32
2017-07-03T08:07:38.231Z,1017.25
2017-07-03T08:08:19.157Z,1017.27
2017-07-03T08:09:00.077Z,1017.25
2017-07-03T08:09:41.016Z,1017.23
2017-07-03T08:10:21.943Z,1017.18
2017-07-03T08:12:20.814Z,1017.16
2017-07-03T08:13:01.732Z,1017.2
2017-07-03T08:13:42.635Z,1017.17
2017-07-03T08:14:23.559Z,1017.24
2017-07-03T08:15:04.476Z,1017.22
2017-07-03T08:15:45.372Z,1017.17
2017-07-03T08:16:26.278Z,1017.15
2017-07-03T08:17:07.166Z,1017.19
2017-07-03T08:17:48.050Z,1017.13
2017-07-03T08:18:28.995Z,1017.16
2017-07-03T08:19:09.896Z,1017.19
2017-07-03T08:19:50.808Z,1017.19
2017-07-03T08:20:31.732Z,1017.19
2017-07-03T08:21:12.650Z,1017.18
2017-07-03T08:21:53.569Z,1017.15
2017-07-03T08:22:34.445Z,1017.22
2017-07-03T08:24:33.299Z,1017.09
2017-07-03T08:25:14.197Z,1017.09
2017-07-03T08:25:55.086Z,1017.1
2017-07-03T08:26:35.984Z,1017.09